Terminal Aerodrome Forecast
Issued by NWS

Home | Current Version | Previous Version | Text Only | Print | Product List | Glossary Off
Versions: 1 2 3 4 5 6 7 8 9 10 11 12 13 14 15

000
FTUS43 KICT 180520
TAFSLN
TAF
KSLN 180520Z 1806/1906 18007KT P6SM OVC250
     FM181000 18007KT P6SM VCTS SCT070CB
      TEMPO 1810/1813 5SM -TSRA BKN070CB
     FM181400 21010KT P6SM SCT250
     FM181900 36008KT P6SM SCT250
     FM190000 04005KT P6SM SCT250=

USA.gov is the U.S. government's official web portal to all federal, state and local government web resources and services.